Accueil
METAR-TAF:

METAR-TAF

Aéroports :

Augsbourg, Allemagne

latitude: 48-26N, longitude: 010-56E, altitude: 461 m

Observation

Le bulletin a été fait il y a 41 minutes, à 02:50 UTC
Vent 4 kt de ouest/sud-ouest
Température 2°C
Humidité 93%
Pression 1011 hPa
Visibilité 10 km ou plus

METAR: EDMA 240250Z AUTO 24004KT 9999 // FEW059/// OVC079/// 02/01 Q1011

Heure: 05:31 (03:31 UTC)

Prévision

Le bulletin a été fait il y a 10 heures et 31 minutes, à 17:00 UTC
Prévision valable du 23 à 18 UTC au 23 à 24 UTC
Vent 3 kt de direction variable
Visibilité 10 km ou plus
Quelques nuages à une hauteur de 1500 ft
Nuages fragmentés à une hauteur de 3000 ft
Probabilité 30% :
Temporairement
du 23 à 18 UTC au 23 à 20 UTC
Nuages fragmentés à une hauteur de 1200 ft

TAF: EDMA 231700Z 2318/2324 VRB03KT 9999 FEW015 BKN030 PROB30 TEMPO 2318/2320 BKN012

Observations et prévisions météorologiques de plus de 4000 aéroports (messages METAR et TAF).

Les stations disponibles sont représentées par des disques jaunes et rouges sur la carte.

Passer la souris dessus pour voir le nom de la station.

Cliquer dessus pour voir les observations et prévisions météorologiques.

Pour changer de carte: cliquez sur les boutons verts avec une croix noire pour zoomer, sur le bouton vert avec un tiret pour effectuer un zoom arrière, ou sur les flèches vertes pour les cartes adjacentes.


METAR-TAF: